Strona główna
METAR-TAF:

METAR-TAF

Lotnisko :

Paulo Afonso, Bahia, Brazylia

Szerokość geograficzna: 09-24S, Długość geograficzna: 038-13W, wysokość: 253 m

Aktualna obserwacja pogody

Raport powstał 19 godziny i 53 minut temu, godzina 19:00 UTC
Wiatr 8 kt od wschodnio-południowy wschód
Temperatura 29°C
Wilgotność 52%
Ciśnienie 1013 hPa
Widzialność 10 km lub więcej
Rozproszone chmury na wysokości 2000 ft

METAR: SBUF 111900Z 11008KT 9999 SCT020 29/18 Q1013

czas: 11:53 (14:53 UTC)


TAF: brakujący

Obserwacja i prognoza pogody dla ponad 4000 lotnisk (raport METAR i TAF).

Dostępne stacje oznaczono żółtymi i czerwonymi punktami na mapie.

Najedź kursorem aby zobaczyć nazwę stacji.

Kliknij aby zobaczyć obserwacje i prognozy pogody.

Aby zmienić mapę: kliknij na zielony przycisk z czarnym krzyżykiem, aby powiększyć; na zielony przycisk z myślnikiem, aby pomniejszyć; na zielone strzałki, aby przejść do map sąsiednich.


METAR-TAF: